createdAt,value
2023-01-02T00:01:35.207Z,100611.15
2023-01-02T00:04:04.152Z,100604.67
2023-01-02T00:06:37.791Z,100606.27
2023-01-02T00:09:07.924Z,100609.13
2023-01-02T00:11:36.607Z,100612.24
2023-01-02T00:14:05.182Z,100617.63
2023-01-02T00:16:34.061Z,100614.85
2023-01-02T00:19:02.777Z,100613.20
2023-01-02T00:21:31.540Z,100611.48
2023-01-02T00:24:00.122Z,100612.12
2023-01-02T00:26:30.542Z,100615.60
2023-01-02T00:28:59.017Z,100617.73
2023-01-02T00:31:29.288Z,100611.15
2023-01-02T00:33:58.238Z,100610.46
2023-01-02T00:36:28.281Z,100606.70
2023-01-02T00:38:57.060Z,100599.79
2023-01-02T00:41:26.007Z,100598.62
2023-01-02T00:43:54.722Z,100592.94
2023-01-02T00:46:23.871Z,100591.64
2023-01-02T00:48:52.706Z,100584.58
2023-01-02T00:51:21.278Z,100582.29
2023-01-02T00:53:50.988Z,100579.88
2023-01-02T00:56:19.678Z,100581.86
2023-01-02T00:58:48.889Z,100578.61
2023-01-02T01:01:17.674Z,100578.24
2023-01-02T01:03:46.763Z,100580.50
2023-01-02T01:06:15.655Z,100585.00
2023-01-02T01:08:44.330Z,100582.13
2023-01-02T01:11:15.476Z,100583.13
2023-01-02T01:13:45.003Z,100585.91
2023-01-02T01:16:16.238Z,100590.80
2023-01-02T01:18:45.633Z,100590.85
2023-01-02T01:21:17.280Z,100592.29
2023-01-02T01:23:53.948Z,100587.27
2023-01-02T01:26:23.577Z,100582.02
2023-01-02T01:28:53.905Z,100571.36
2023-01-02T01:31:23.796Z,100565.09
2023-01-02T01:33:52.499Z,100564.25
2023-01-02T01:36:24.271Z,100562.10
2023-01-02T01:38:52.865Z,100564.23
2023-01-02T01:41:26.039Z,100563.80
2023-01-02T01:44:00.148Z,100560.71
2023-01-02T01:46:34.646Z,100556.75
2023-01-02T01:49:19.833Z,100556.30
2023-01-02T01:51:59.280Z,100550.73
2023-01-02T01:54:37.578Z,100550.52
2023-01-02T01:57:17.167Z,100548.38
2023-01-02T01:59:45.898Z,100546.09
2023-01-02T02:02:15.267Z,100547.03
2023-01-02T02:04:45.028Z,100545.55
2023-01-02T02:07:13.899Z,100544.84
2023-01-02T02:10:10.648Z,100546.36
2023-01-02T02:12:39.332Z,100543.45
2023-01-02T02:15:10.908Z,100541.05
2023-01-02T02:18:01.384Z,100541.05
2023-01-02T02:20:54.965Z,100534.34
2023-01-02T02:23:48.411Z,100521.45
2023-01-02T02:26:35.431Z,100510.73
2023-01-02T02:29:22.856Z,100513.46
2023-01-02T02:31:54.424Z,100514.86
2023-01-02T02:34:28.301Z,100521.71
2023-01-02T02:37:12.768Z,100526.36
2023-01-02T02:39:54.767Z,100523.64
2023-01-02T02:42:46.197Z,100531.66
2023-01-02T02:45:17.132Z,100531.77
2023-01-02T02:48:02.517Z,100538.69
2023-01-02T02:50:36.552Z,100540.45
2023-01-02T02:53:19.834Z,100539.80
2023-01-02T02:55:54.129Z,100537.23
2023-01-02T02:58:23.896Z,100538.05
2023-01-02T03:01:03.782Z,100534.52
2023-01-02T03:03:32.765Z,100529.10
2023-01-02T03:06:32.021Z,100513.61
2023-01-02T03:09:03.877Z,100504.41
2023-01-02T03:12:14.638Z,100491.09
2023-01-02T03:15:02.179Z,100479.31
2023-01-02T03:18:10.976Z,100465.98
2023-01-02T03:20:42.235Z,100479.83
2023-01-02T03:23:21.567Z,100488.77
2023-01-02T03:25:52.381Z,100485.18
2023-01-02T03:28:24.517Z,100481.88
2023-01-02T03:30:57.398Z,100482.73
2023-01-02T03:33:28.192Z,100485.14
2023-01-02T03:36:18.211Z,100488.30
2023-01-02T03:39:27.626Z,100487.30
2023-01-02T03:41:59.964Z,100489.70
2023-01-02T03:44:50.792Z,100488.04
2023-01-02T03:47:41.394Z,100476.58
2023-01-02T03:50:17.885Z,100469.89
2023-01-02T03:52:46.669Z,100473.95
2023-01-02T03:55:16.462Z,100474.77
2023-01-02T03:57:57.421Z,100474.15
2023-01-02T04:00:37.698Z,100471.84
2023-01-02T04:03:20.055Z,100472.00
2023-01-02T04:05:51.861Z,100470.56
2023-01-02T04:08:31.030Z,100467.77
2023-01-02T04:11:01.612Z,100458.83
2023-01-02T04:13:34.609Z,100457.13
2023-01-02T04:16:04.399Z,100455.44
2023-01-02T04:18:46.249Z,100456.23
2023-01-02T04:21:21.731Z,100449.12
2023-01-02T04:24:14.153Z,100449.65
2023-01-02T04:26:46.588Z,100447.20
2023-01-02T04:29:15.260Z,100449.02
2023-01-02T04:31:47.133Z,100441.95
2023-01-02T04:34:16.941Z,100433.48
2023-01-02T04:36:46.024Z,100431.82
2023-01-02T04:39:14.920Z,100426.52
2023-01-02T04:41:43.810Z,100429.04
2023-01-02T04:44:12.305Z,100426.26
2023-01-02T04:46:41.143Z,100426.20
2023-01-02T04:49:10.703Z,100425.07
2023-01-02T04:51:40.179Z,100423.42
2023-01-02T04:54:11.742Z,100425.02
2023-01-02T04:56:40.336Z,100423.09
2023-01-02T04:59:08.942Z,100420.41
2023-01-02T05:01:37.661Z,100420.14
2023-01-02T05:04:06.381Z,100422.00
2023-01-02T05:06:34.961Z,100421.80
2023-01-02T05:09:03.965Z,100419.50
2023-01-02T05:11:32.812Z,100419.70
2023-01-02T05:14:07.088Z,100420.49
2023-01-02T05:16:36.363Z,100420.91
2023-01-02T05:19:05.034Z,100417.96
2023-01-02T05:21:52.584Z,100413.73
2023-01-02T05:24:21.262Z,100412.32
2023-01-02T05:26:49.842Z,100409.73
2023-01-02T05:29:18.742Z,100412.02
2023-01-02T05:31:47.440Z,100414.87
2023-01-02T05:34:16.837Z,100412.34
2023-01-02T05:36:45.299Z,100418.10
2023-01-02T05:39:14.919Z,100416.06
2023-01-02T05:41:44.008Z,100417.58
2023-01-02T05:44:12.683Z,100413.70
2023-01-02T05:46:41.449Z,100411.98
2023-01-02T05:49:11.318Z,100414.61
2023-01-02T05:51:40.883Z,100412.27
2023-01-02T05:54:10.121Z,100405.44
2023-01-02T05:56:39.918Z,100400.83
2023-01-02T05:59:09.107Z,100389.88
2023-01-02T06:01:39.046Z,100392.14
2023-01-02T06:04:09.045Z,100392.45
2023-01-02T06:06:39.670Z,100388.94
2023-01-02T06:09:09.395Z,100388.83
2023-01-02T06:11:38.277Z,100386.98
2023-01-02T06:14:07.260Z,100380.04
2023-01-02T06:16:36.149Z,100372.42
2023-01-02T06:19:05.866Z,100368.31
2023-01-02T06:21:34.649Z,100366.13
2023-01-02T06:24:03.443Z,100365.45
2023-01-02T06:26:35.272Z,100367.80
2023-01-02T06:29:05.194Z,100363.37
2023-01-02T06:31:34.193Z,100364.57
2023-01-02T06:34:04.560Z,100365.84
2023-01-02T06:36:34.730Z,100368.29
2023-01-02T06:39:03.720Z,100368.61
2023-01-02T06:41:32.769Z,100367.75
2023-01-02T06:44:01.304Z,100369.41
2023-01-02T06:46:30.911Z,100368.59
2023-01-02T06:48:59.828Z,100377.27
2023-01-02T06:51:28.903Z,100370.98
2023-01-02T06:53:57.601Z,100365.54
2023-01-02T06:56:26.474Z,100364.03
2023-01-02T06:58:55.062Z,100368.30
2023-01-02T07:01:23.968Z,100370.65
2023-01-02T07:03:52.649Z,100371.73
2023-01-02T07:06:22.968Z,100369.30
2023-01-02T07:08:52.785Z,100363.16
2023-01-02T07:11:23.584Z,100362.56
2023-01-02T07:13:54.515Z,100359.64
2023-01-02T07:16:24.324Z,100351.43
2023-01-02T07:18:54.279Z,100362.29
2023-01-02T07:21:23.251Z,100361.44
2023-01-02T07:23:51.847Z,100364.27
2023-01-02T07:26:21.571Z,100367.23
2023-01-02T07:28:50.260Z,100372.33
2023-01-02T07:31:20.561Z,100379.63
2023-01-02T07:33:49.984Z,100382.66
2023-01-02T07:36:19.790Z,100381.42
2023-01-02T07:38:52.676Z,100383.13
2023-01-02T07:41:23.991Z,100386.16
2023-01-02T07:43:55.562Z,100386.98
2023-01-02T07:46:25.192Z,100382.59
2023-01-02T07:48:53.959Z,100386.66
2023-01-02T07:51:27.367Z,100382.23
2023-01-02T07:53:59.107Z,100373.73
2023-01-02T07:56:28.940Z,100369.51
2023-01-02T07:59:04.356Z,100372.73
2023-01-02T08:01:33.020Z,100371.74
2023-01-02T08:04:03.594Z,100369.20
2023-01-02T08:06:32.355Z,100372.03
2023-01-02T08:09:01.060Z,100372.58
2023-01-02T08:11:29.630Z,100373.31
2023-01-02T08:13:58.444Z,100369.76
2023-01-02T08:16:27.211Z,100363.79
2023-01-02T08:18:57.133Z,100368.78
2023-01-02T08:21:26.989Z,100374.95
2023-01-02T08:23:55.468Z,100375.44
2023-01-02T08:26:24.395Z,100376.34
2023-01-02T08:28:55.040Z,100373.17
2023-01-02T08:31:23.519Z,100368.17
2023-01-02T08:33:51.998Z,100365.95
2023-01-02T08:36:20.798Z,100374.92
2023-01-02T08:38:49.816Z,100370.14
2023-01-02T08:41:35.501Z,100369.21
2023-01-02T08:44:04.349Z,100365.86
2023-01-02T08:46:38.554Z,100363.97
2023-01-02T08:49:11.769Z,100361.16
2023-01-02T08:51:40.937Z,100356.41
2023-01-02T08:54:09.742Z,100355.46
2023-01-02T08:56:38.642Z,100358.61
2023-01-02T08:59:11.927Z,100368.40
2023-01-02T09:01:40.728Z,100366.71
2023-01-02T09:04:12.884Z,100365.39
2023-01-02T09:06:42.999Z,100362.41
2023-01-02T09:09:13.861Z,100361.05
2023-01-02T09:11:50.779Z,100363.80
2023-01-02T09:14:22.392Z,100358.94
2023-01-02T09:16:52.318Z,100355.95
2023-01-02T09:19:21.178Z,100355.02
2023-01-02T09:21:50.350Z,100353.34
2023-01-02T09:24:19.361Z,100343.39
2023-01-02T09:26:48.155Z,100341.44
2023-01-02T09:29:17.867Z,100339.95
2023-01-02T09:31:46.923Z,100334.98
2023-01-02T09:34:15.659Z,100334.73
2023-01-02T09:36:44.435Z,100328.58
2023-01-02T09:39:13.315Z,100324.81
2023-01-02T09:41:51.347Z,100324.02
2023-01-02T09:44:41.615Z,100324.27
2023-01-02T09:47:19.418Z,100331.48
2023-01-02T09:49:52.692Z,100329.38
2023-01-02T09:52:26.016Z,100335.59
2023-01-02T09:54:55.076Z,100343.11
2023-01-02T09:57:29.989Z,100344.56
2023-01-02T10:00:06.514Z,100344.20
2023-01-02T10:03:08.360Z,100354.16
2023-01-02T10:06:22.299Z,100359.11
2023-01-02T10:09:08.770Z,100370.00
2023-01-02T10:11:46.738Z,100378.03
2023-01-02T10:14:42.069Z,100373.77
2023-01-02T10:17:15.875Z,100365.87
2023-01-02T10:20:04.403Z,100361.61
2023-01-02T10:22:39.834Z,100367.24
2023-01-02T10:25:12.817Z,100374.40
2023-01-02T10:27:46.207Z,100369.16
2023-01-02T10:30:25.773Z,100362.42
2023-01-02T10:33:09.787Z,100367.27
2023-01-02T10:35:44.480Z,100372.71
2023-01-02T10:38:16.086Z,100378.59
2023-01-02T10:40:48.041Z,100378.37
2023-01-02T10:43:17.537Z,100376.94
2023-01-02T10:45:46.111Z,100371.90
2023-01-02T10:48:14.700Z,100365.84
2023-01-02T10:50:52.025Z,100368.73
2023-01-02T10:53:32.244Z,100378.80
2023-01-02T10:56:15.058Z,100394.95
2023-01-02T10:58:48.658Z,100405.66
2023-01-02T11:01:19.677Z,100400.06
2023-01-02T11:04:10.313Z,100390.76
2023-01-02T11:07:13.201Z,100370.02
2023-01-02T11:09:54.952Z,100373.58
2023-01-02T11:12:27.438Z,100379.09
2023-01-02T11:15:14.249Z,100372.95
2023-01-02T11:17:44.460Z,100372.98
2023-01-02T11:20:29.359Z,100382.56
2023-01-02T11:23:01.725Z,100376.20
2023-01-02T11:25:40.953Z,100374.98
2023-01-02T11:28:25.395Z,100367.20
2023-01-02T11:31:05.732Z,100354.56
2023-01-02T11:33:35.807Z,100333.91
2023-01-02T11:36:05.478Z,100316.56
2023-01-02T11:39:01.208Z,100321.31
2023-01-02T11:41:49.932Z,100338.80
2023-01-02T11:44:56.341Z,100341.74
2023-01-02T11:47:38.382Z,100330.03
2023-01-02T11:50:12.969Z,100330.70
2023-01-02T11:52:51.078Z,100324.51
2023-01-02T11:55:46.620Z,100324.55
2023-01-02T11:58:19.346Z,100315.48
2023-01-02T12:00:51.934Z,100312.10
2023-01-02T12:03:24.588Z,100312.08
2023-01-02T12:06:08.663Z,100313.92
2023-01-02T12:09:00.849Z,100307.89
2023-01-02T12:11:48.934Z,100317.91
2023-01-02T12:14:22.061Z,100320.09
2023-01-02T12:17:03.152Z,100316.42
2023-01-02T12:19:54.414Z,100309.30
2023-01-02T12:22:28.940Z,100313.48
2023-01-02T12:25:26.203Z,100320.66
2023-01-02T12:28:10.139Z,100328.95
2023-01-02T12:30:50.495Z,100329.13
2023-01-02T12:33:49.392Z,100329.21
2023-01-02T12:36:42.262Z,100325.34
2023-01-02T12:39:22.001Z,100322.21
2023-01-02T12:42:12.113Z,100321.21
2023-01-02T12:44:47.759Z,100314.91
2023-01-02T12:47:22.362Z,100321.75
2023-01-02T12:49:56.966Z,100326.23
2023-01-02T12:53:01.313Z,100322.63
2023-01-02T12:56:07.965Z,100320.08
2023-01-02T12:58:46.033Z,100322.11
2023-01-02T13:01:26.799Z,100320.98
2023-01-02T13:04:17.447Z,100317.64
2023-01-02T13:06:56.989Z,100317.00
2023-01-02T13:09:43.627Z,100313.92
2023-01-02T13:12:20.365Z,100307.62
2023-01-02T13:14:55.102Z,100299.80
2023-01-02T13:17:51.835Z,100296.39
2023-01-02T13:20:20.664Z,100294.55
2023-01-02T13:23:31.107Z,100296.47
2023-01-02T13:26:11.453Z,100303.23
2023-01-02T13:28:43.726Z,100309.73
2023-01-02T13:34:14.698Z,100308.11
2023-01-02T13:36:46.389Z,100314.79
2023-01-02T13:39:41.639Z,100318.60
2023-01-02T13:42:39.512Z,100322.59
2023-01-02T13:45:24.203Z,100327.21
2023-01-02T13:47:55.591Z,100328.30
2023-01-02T13:50:24.402Z,100328.34
2023-01-02T13:53:48.696Z,100328.04
2023-01-02T13:56:24.869Z,100336.20
2023-01-02T13:58:56.828Z,100340.45
2023-01-02T14:01:30.006Z,100346.44
2023-01-02T14:04:25.941Z,100348.35
2023-01-02T14:06:55.041Z,100346.33
2023-01-02T14:09:27.386Z,100337.31
2023-01-02T14:11:59.356Z,100339.77
2023-01-02T14:14:51.606Z,100335.39
2023-01-02T14:17:52.228Z,100347.66
2023-01-02T14:20:27.378Z,100347.48
2023-01-02T14:23:04.839Z,100347.83
2023-01-02T14:25:45.636Z,100346.08
2023-01-02T14:28:25.805Z,100348.50
2023-01-02T14:30:55.224Z,100343.91
2023-01-02T14:33:33.401Z,100345.02
2023-01-02T14:36:07.207Z,100342.06
2023-01-02T14:38:51.656Z,100342.85
2023-01-02T14:42:07.361Z,100345.91
2023-01-02T14:44:59.183Z,100352.21
2023-01-02T14:47:37.803Z,100357.66
2023-01-02T14:50:13.738Z,100359.91
2023-01-02T14:52:46.163Z,100361.13
2023-01-02T14:55:21.779Z,100361.71
2023-01-02T14:57:52.620Z,100370.55
2023-01-02T15:00:34.446Z,100371.80
2023-01-02T15:03:11.801Z,100365.63
2023-01-02T15:05:48.879Z,100370.27
2023-01-02T15:08:20.727Z,100371.88
2023-01-02T15:11:21.982Z,100369.51
2023-01-02T15:14:05.644Z,100368.63
2023-01-02T15:16:42.216Z,100369.03
2023-01-02T15:19:19.994Z,100366.78
2023-01-02T15:21:50.102Z,100375.76
2023-01-02T15:24:24.124Z,100375.47
2023-01-02T15:26:52.916Z,100374.84
2023-01-02T15:29:25.484Z,100382.85
2023-01-02T15:32:01.163Z,100381.42
2023-01-02T15:34:34.319Z,100385.63
2023-01-02T15:37:04.749Z,100390.41
2023-01-02T15:39:39.576Z,100396.19
2023-01-02T15:42:28.541Z,100402.64
2023-01-02T15:45:10.637Z,100413.42
2023-01-02T15:47:50.907Z,100419.67
2023-01-02T15:50:24.828Z,100417.43
2023-01-02T15:52:59.631Z,100415.20
2023-01-02T15:55:31.985Z,100416.55
2023-01-02T15:58:17.702Z,100413.20
2023-01-02T16:00:46.849Z,100412.52
2023-01-02T16:04:02.600Z,100412.36
2023-01-02T16:06:44.783Z,100419.94
2023-01-02T16:09:21.150Z,100425.84
2023-01-02T16:11:51.334Z,100423.06
2023-01-02T16:14:42.082Z,100415.19
2023-01-02T16:17:27.224Z,100411.52
2023-01-02T16:20:16.927Z,100410.81
2023-01-02T16:23:08.247Z,100413.79
2023-01-02T16:25:44.074Z,100417.23
2023-01-02T16:28:35.383Z,100418.36
2023-01-02T16:31:17.698Z,100416.02
2023-01-02T16:33:47.221Z,100421.59
2023-01-02T16:36:16.735Z,100421.27
2023-01-02T16:38:50.136Z,100417.77
2023-01-02T16:41:45.110Z,100418.46
2023-01-02T16:44:20.289Z,100418.42
2023-01-02T16:46:50.323Z,100412.54
2023-01-02T16:49:21.223Z,100411.74
2023-01-02T16:51:54.305Z,100409.61
2023-01-02T16:54:23.181Z,100409.35
2023-01-02T16:56:51.971Z,100414.02
2023-01-02T16:59:20.552Z,100415.89
2023-01-02T17:01:49.322Z,100416.80
2023-01-02T17:04:18.136Z,100418.36
2023-01-02T17:06:46.903Z,100414.23
2023-01-02T17:09:16.000Z,100412.26
2023-01-02T17:12:00.762Z,100406.16
2023-01-02T17:14:31.726Z,100398.48
2023-01-02T17:17:00.711Z,100395.29
2023-01-02T17:19:30.194Z,100385.27
2023-01-02T17:21:59.000Z,100377.84
2023-01-02T17:24:27.587Z,100390.91
2023-01-02T17:26:56.461Z,100400.38
2023-01-02T17:29:25.071Z,100407.25
2023-01-02T17:31:53.910Z,100408.79
2023-01-02T17:34:23.156Z,100408.58
2023-01-02T17:36:52.346Z,100414.31
2023-01-02T17:39:22.040Z,100423.48
2023-01-02T17:41:52.255Z,100430.33
2023-01-02T17:44:21.360Z,100433.05
2023-01-02T17:47:38.938Z,100436.75
2023-01-02T17:49:40.697Z,100440.34
2023-01-02T17:52:10.528Z,100434.13
2023-01-02T17:54:39.775Z,100425.89
2023-01-02T17:57:09.596Z,100424.92
2023-01-02T17:59:40.722Z,100421.61
2023-01-02T18:02:15.806Z,100426.14
2023-01-02T18:04:50.940Z,100428.92
2023-01-02T18:07:25.403Z,100429.11
2023-01-02T18:10:07.668Z,100428.91
2023-01-02T18:12:39.076Z,100424.36
2023-01-02T18:15:12.545Z,100415.91
2023-01-02T18:17:41.441Z,100415.21
2023-01-02T18:20:13.625Z,100421.63
2023-01-02T18:22:48.907Z,100424.02
2023-01-02T18:25:30.432Z,100429.70
2023-01-02T18:28:14.436Z,100431.99
2023-01-02T18:30:44.156Z,100429.75
2023-01-02T18:33:17.775Z,100438.47
2023-01-02T18:35:58.698Z,100441.45
2023-01-02T18:38:33.690Z,100445.23
2023-01-02T18:41:16.917Z,100445.56
2023-01-02T18:43:47.613Z,100443.95
2023-01-02T18:46:22.654Z,100445.55
2023-01-02T18:48:54.356Z,100450.65
2023-01-02T18:51:25.409Z,100456.42
2023-01-02T18:53:57.603Z,100458.98
2023-01-02T18:56:29.876Z,100461.69
2023-01-02T18:59:13.988Z,100469.23
2023-01-02T19:01:53.018Z,100472.23
2023-01-02T19:04:30.971Z,100478.10
2023-01-02T19:07:27.758Z,100471.85
2023-01-02T19:10:29.986Z,100477.73
2023-01-02T19:13:26.415Z,100483.71
2023-01-02T19:16:19.130Z,100483.06
2023-01-02T19:18:49.955Z,100482.89
2023-01-02T19:21:30.850Z,100481.66
2023-01-02T19:24:11.229Z,100486.05
2023-01-02T19:26:53.396Z,100478.55
2023-01-02T19:29:29.342Z,100468.55
2023-01-02T19:32:26.180Z,100475.45
2023-01-02T19:35:05.465Z,100491.57
2023-01-02T19:37:41.041Z,100494.15
2023-01-02T19:40:19.685Z,100493.72
2023-01-02T19:42:54.442Z,100494.77
2023-01-02T19:45:27.247Z,100492.23
2023-01-02T19:47:58.526Z,100497.01
2023-01-02T19:50:28.857Z,100502.75
2023-01-02T19:52:58.464Z,100490.51
2023-01-02T19:55:28.283Z,100485.52
2023-01-02T19:57:57.990Z,100498.48
2023-01-02T20:00:29.551Z,100512.29
2023-01-02T20:03:00.084Z,100516.67
2023-01-02T20:05:31.107Z,100523.36
2023-01-02T20:08:03.807Z,100524.75
2023-01-02T20:10:33.896Z,100529.16
2023-01-02T20:13:04.748Z,100532.24
2023-01-02T20:15:36.009Z,100534.70
2023-01-02T20:18:08.919Z,100533.20
2023-01-02T20:20:38.842Z,100534.09
2023-01-02T20:23:07.876Z,100535.92
2023-01-02T20:25:37.789Z,100532.19
2023-01-02T20:28:07.278Z,100531.13
2023-01-02T20:30:37.327Z,100536.05
2023-01-02T20:33:09.165Z,100539.95
2023-01-02T20:35:40.137Z,100544.19
2023-01-02T20:38:09.539Z,100541.63
2023-01-02T20:40:40.210Z,100539.23
2023-01-02T20:43:10.453Z,100541.98
2023-01-02T20:45:40.472Z,100542.91
2023-01-02T20:48:11.308Z,100547.09
2023-01-02T20:50:42.209Z,100545.68
2023-01-02T20:53:13.752Z,100546.27
2023-01-02T20:55:45.398Z,100543.51
2023-01-02T20:58:15.689Z,100548.11
2023-01-02T21:00:49.973Z,100548.80
2023-01-02T21:03:22.567Z,100562.17
2023-01-02T21:05:54.558Z,100561.23
2023-01-02T21:08:25.670Z,100559.15
2023-01-02T21:10:55.026Z,100560.36
2023-01-02T21:13:26.345Z,100562.73
2023-01-02T21:15:57.268Z,100565.66
2023-01-02T21:18:41.302Z,100563.64
2023-01-02T21:21:20.524Z,100562.63
2023-01-02T21:23:51.235Z,100562.67
2023-01-02T21:26:24.582Z,100558.45
2023-01-02T21:28:54.504Z,100557.06
2023-01-02T21:31:24.183Z,100560.96
2023-01-02T21:33:53.130Z,100562.36
2023-01-02T21:36:22.133Z,100568.20
2023-01-02T21:39:00.422Z,100572.59
2023-01-02T21:41:49.245Z,100574.14
2023-01-02T21:44:18.229Z,100574.84
2023-01-02T21:46:47.561Z,100573.17
2023-01-02T21:49:16.342Z,100573.21
2023-01-02T21:51:45.084Z,100563.37
2023-01-02T21:54:14.563Z,100564.40
2023-01-02T21:56:45.485Z,100565.19
2023-01-02T21:59:14.029Z,100572.75
2023-01-02T22:01:42.805Z,100579.23
2023-01-02T22:04:12.839Z,100579.64
2023-01-02T22:07:20.884Z,100585.11
2023-01-02T22:09:30.903Z,100580.19
2023-01-02T22:11:59.511Z,100584.19
2023-01-02T22:14:33.491Z,100588.16
2023-01-02T22:17:06.466Z,100592.13
2023-01-02T22:19:35.775Z,100601.86
2023-01-02T22:22:05.145Z,100605.58
2023-01-02T22:24:39.178Z,100606.96
2023-01-02T22:27:14.835Z,100610.23
2023-01-02T22:30:19.535Z,100611.13
2023-01-02T22:32:34.761Z,100616.80
2023-01-02T22:35:05.605Z,100611.61
2023-01-02T22:37:35.304Z,100615.36
2023-01-02T22:40:04.589Z,100612.40
2023-01-02T22:43:02.699Z,100608.88
2023-01-02T22:45:45.236Z,100604.20
2023-01-02T22:48:23.805Z,100612.66
2023-01-02T22:50:55.924Z,100608.42
2023-01-02T22:53:30.161Z,100606.00
2023-01-02T22:56:00.589Z,100613.70
2023-01-02T22:58:30.327Z,100606.05
2023-01-02T23:01:04.548Z,100604.13
2023-01-02T23:03:39.309Z,100598.06
2023-01-02T23:06:08.128Z,100604.75
2023-01-02T23:08:38.570Z,100611.80
2023-01-02T23:11:08.186Z,100611.82
2023-01-02T23:13:38.528Z,100616.94
2023-01-02T23:16:26.227Z,100614.77
2023-01-02T23:19:13.559Z,100617.13
2023-01-02T23:21:48.202Z,100619.41
2023-01-02T23:24:26.051Z,100623.56
2023-01-02T23:26:56.677Z,100626.23
2023-01-02T23:29:27.301Z,100631.48
2023-01-02T23:31:56.509Z,100640.54
2023-01-02T23:34:27.335Z,100640.44
2023-01-02T23:36:57.631Z,100647.04
2023-01-02T23:39:29.035Z,100654.15
2023-01-02T23:41:58.342Z,100655.38
2023-01-02T23:44:27.543Z,100665.92
2023-01-02T23:46:57.039Z,100674.27
2023-01-02T23:49:25.817Z,100680.27
2023-01-02T23:51:54.506Z,100682.95
2023-01-02T23:54:24.644Z,100690.60
2023-01-02T23:56:53.111Z,100706.60
2023-01-02T23:59:23.442Z,100721.25
